createdAt,value
2022-09-04T00:02:30.881Z,101315.63
2022-09-04T00:05:22.797Z,101313.53
2022-09-04T00:08:25.444Z,101320.28
2022-09-04T00:11:07.333Z,101321.97
2022-09-04T00:13:57.463Z,101322.38
2022-09-04T00:17:14.702Z,101319.84
2022-09-04T00:19:59.788Z,101319.38
2022-09-04T00:23:15.025Z,101322.84
2022-09-04T00:26:20.856Z,101314.25
2022-09-04T00:29:05.579Z,101313.78
2022-09-04T00:31:50.652Z,101318.72
2022-09-04T00:35:12.058Z,101321.97
2022-09-04T00:38:11.838Z,101311.00
2022-09-04T00:41:02.542Z,101327.16
2022-09-04T00:44:35.786Z,101326.66
2022-09-04T00:47:48.917Z,101329.44
2022-09-04T00:50:54.996Z,101328.50
2022-09-04T00:53:52.032Z,101329.16
2022-09-04T00:57:02.214Z,101329.47
2022-09-04T01:00:21.339Z,101340.53
2022-09-04T01:03:42.584Z,101347.13
2022-09-04T01:06:54.152Z,101339.41
2022-09-04T01:09:47.899Z,101343.19
2022-09-04T01:12:58.505Z,101346.31
2022-09-04T01:15:45.180Z,101345.84
2022-09-04T01:18:51.966Z,101348.13
2022-09-04T01:21:40.157Z,101347.69
2022-09-04T01:24:42.070Z,101344.63
2022-09-04T01:27:56.672Z,101355.44
2022-09-04T01:30:24.148Z,101359.06
2022-09-04T01:33:24.016Z,101354.81
2022-09-04T01:36:49.533Z,101357.25
2022-09-04T01:39:26.197Z,101356.94
2022-09-04T01:42:23.633Z,101359.72
2022-09-04T01:44:50.710Z,101353.84
2022-09-04T01:47:30.939Z,101351.56
2022-09-04T01:50:22.175Z,101351.72
2022-09-04T01:53:14.544Z,101347.63
2022-09-04T01:56:29.735Z,101351.41
2022-09-04T01:59:26.427Z,101349.44
2022-09-04T02:02:41.356Z,101345.34
2022-09-04T02:05:43.136Z,101356.16
2022-09-04T02:08:55.306Z,101348.47
2022-09-04T02:11:29.848Z,101347.81
2022-09-04T02:14:24.402Z,101351.09
2022-09-04T02:17:21.150Z,101353.88
2022-09-04T02:20:17.072Z,101347.63
2022-09-04T02:23:14.461Z,101353.38
2022-09-04T02:26:19.419Z,101351.56
2022-09-04T02:29:28.203Z,101354.84
2022-09-04T02:32:19.427Z,101356.66
2022-09-04T02:35:16.096Z,101357.16
2022-09-04T02:38:26.333Z,101356.66
2022-09-04T02:40:56.190Z,101345.69
2022-09-04T02:43:43.714Z,101347.97
2022-09-04T02:46:51.120Z,101347.44
2022-09-04T02:49:51.988Z,101360.41
2022-09-04T02:53:21.100Z,101361.88
2022-09-04T02:56:46.608Z,101361.56
2022-09-04T02:59:43.068Z,101370.59
2022-09-04T03:02:38.742Z,101365.34
2022-09-04T03:05:42.265Z,101366.84
2022-09-04T03:08:24.307Z,101363.69
2022-09-04T03:11:26.949Z,101359.94
2022-09-04T03:14:39.052Z,101354.84
2022-09-04T03:17:30.029Z,101353.03
2022-09-04T03:20:33.743Z,101354.50
2022-09-04T03:23:25.787Z,101357.97
2022-09-04T03:26:01.648Z,101363.88
2022-09-04T03:29:11.918Z,101359.28
2022-09-04T03:32:15.864Z,101356.81
2022-09-04T03:35:26.397Z,101356.16
2022-09-04T03:38:34.108Z,101356.00
2022-09-04T03:41:45.981Z,101361.41
2022-09-04T03:44:54.837Z,101356.50
2022-09-04T03:48:09.394Z,101362.09
2022-09-04T03:51:01.417Z,101368.50
2022-09-04T03:53:59.383Z,101370.28
2022-09-04T03:57:19.933Z,101377.19
2022-09-04T04:00:12.728Z,101374.41
2022-09-04T04:03:19.628Z,101379.16
2022-09-04T04:06:23.732Z,101388.50
2022-09-04T04:09:47.451Z,101389.47
2022-09-04T04:12:59.250Z,101399.47
2022-09-04T04:15:37.955Z,101392.59
2022-09-04T04:18:54.330Z,101390.31
2022-09-04T04:22:13.691Z,101384.75
2022-09-04T04:25:42.559Z,101381.28
2022-09-04T04:29:02.812Z,101389.44
2022-09-04T04:32:10.678Z,101385.19
2022-09-04T04:35:26.317Z,101393.22
2022-09-04T04:38:24.874Z,101391.56
2022-09-04T04:41:30.899Z,101401.88
2022-09-04T04:44:45.711Z,101401.56
2022-09-04T04:48:00.456Z,101410.56
2022-09-04T04:51:05.374Z,101414.31
2022-09-04T04:54:34.711Z,101423.19
2022-09-04T04:57:27.660Z,101423.84
2022-09-04T05:00:37.199Z,101431.06
2022-09-04T05:03:54.014Z,101431.91
2022-09-04T05:07:52.789Z,101424.88
2022-09-04T05:10:41.173Z,101432.41
2022-09-04T05:13:41.705Z,101442.22
2022-09-04T05:16:58.404Z,101449.78
2022-09-04T05:20:15.394Z,101454.03
2022-09-04T05:23:29.177Z,101466.00
2022-09-04T05:26:19.441Z,101469.66
2022-09-04T05:29:47.526Z,101468.84
2022-09-04T05:32:37.638Z,101480.31
2022-09-04T05:35:41.021Z,101477.22
2022-09-04T05:38:30.628Z,101487.06
2022-09-04T05:41:19.562Z,101485.41
2022-09-04T05:44:31.067Z,101494.47
2022-09-04T05:47:47.841Z,101496.75
2022-09-04T05:50:46.658Z,101502.13
2022-09-04T05:54:02.643Z,101508.22
2022-09-04T05:57:29.686Z,101513.13
2022-09-04T06:00:13.398Z,101510.34
2022-09-04T06:03:12.527Z,101514.78
2022-09-04T06:06:10.221Z,101516.78
2022-09-04T06:09:58.636Z,101511.03
2022-09-04T06:12:49.569Z,101523.88
2022-09-04T06:16:08.116Z,101526.81
2022-09-04T06:19:15.035Z,101532.69
2022-09-04T06:22:40.716Z,101534.59
2022-09-04T06:25:59.880Z,101536.19
2022-09-04T06:29:14.875Z,101527.94
2022-09-04T06:32:22.445Z,101534.81
2022-09-04T06:35:15.792Z,101533.00
2022-09-04T06:38:09.518Z,101541.69
2022-09-04T06:41:22.838Z,101540.56
2022-09-04T06:44:16.312Z,101531.91
2022-09-04T06:46:57.697Z,101536.34
2022-09-04T06:50:08.549Z,101537.69
2022-09-04T06:53:16.326Z,101547.19
2022-09-04T06:56:35.989Z,101541.28
2022-09-04T06:59:42.040Z,101544.38
2022-09-04T07:02:31.245Z,101548.09
2022-09-04T07:05:13.758Z,101562.59
2022-09-04T07:08:18.515Z,101555.06
2022-09-04T07:10:59.592Z,101551.50
2022-09-04T07:14:45.267Z,101556.22
2022-09-04T07:17:37.739Z,101566.50
2022-09-04T07:20:43.517Z,101556.34
2022-09-04T07:23:46.154Z,101550.59
2022-09-04T07:26:58.566Z,101561.69
2022-09-04T07:29:41.679Z,101556.47
2022-09-04T07:32:26.761Z,101559.22
2022-09-04T07:35:30.148Z,101561.28
2022-09-04T07:38:21.959Z,101562.63
2022-09-04T07:41:02.549Z,101559.66
2022-09-04T07:43:54.697Z,101565.38
2022-09-04T07:46:57.541Z,101568.84
2022-09-04T07:50:15.926Z,101570.16
2022-09-04T07:53:19.912Z,101562.94
2022-09-04T07:56:02.046Z,101574.84
2022-09-04T07:58:56.766Z,101570.84
2022-09-04T08:02:27.831Z,101574.50
2022-09-04T08:05:37.049Z,101583.13
2022-09-04T08:08:28.644Z,101592.59
2022-09-04T08:11:35.199Z,101600.09
2022-09-04T08:14:52.082Z,101598.94
2022-09-04T08:17:46.083Z,101599.47
2022-09-04T08:20:56.854Z,101608.09
2022-09-04T08:23:54.634Z,101604.72
2022-09-04T08:27:00.802Z,101612.63
2022-09-04T08:30:10.344Z,101610.03
2022-09-04T08:33:28.363Z,101602.53
2022-09-04T08:36:31.593Z,101607.34
2022-09-04T08:39:52.343Z,101608.16
2022-09-04T08:42:59.583Z,101610.09
2022-09-04T08:46:32.286Z,101608.22
2022-09-04T08:49:11.683Z,101601.59
2022-09-04T08:52:44.769Z,101601.44
2022-09-04T08:55:32.658Z,101602.09
2022-09-04T08:58:49.408Z,101609.56
2022-09-04T09:02:10.490Z,101608.75
2022-09-04T09:05:23.118Z,101600.22
2022-09-04T09:08:49.934Z,101610.22
2022-09-04T09:12:40.695Z,101600.22
2022-09-04T09:15:50.952Z,101601.38
2022-09-04T09:19:10.254Z,101599.66
2022-09-04T09:22:27.880Z,101599.59
2022-09-04T09:26:02.979Z,101603.31
2022-09-04T09:29:26.831Z,101608.41
2022-09-04T09:32:37.510Z,101598.75
2022-09-04T09:36:07.636Z,101590.78
2022-09-04T09:39:25.692Z,101598.38
2022-09-04T09:42:20.075Z,101594.56
2022-09-04T09:45:27.399Z,101593.25
2022-09-04T09:48:31.467Z,101587.59
2022-09-04T09:52:11.526Z,101591.78
2022-09-04T09:55:26.314Z,101588.97
2022-09-04T09:58:36.038Z,101581.06
2022-09-04T10:01:51.289Z,101584.88
2022-09-04T10:05:13.746Z,101578.63
2022-09-04T10:08:35.542Z,101586.97
2022-09-04T10:11:29.233Z,101585.06
2022-09-04T10:14:31.885Z,101588.44
2022-09-04T10:17:19.589Z,101580.78
2022-09-04T10:20:30.074Z,101581.34
2022-09-04T10:23:06.919Z,101585.41
2022-09-04T10:26:16.194Z,101579.00
2022-09-04T10:29:28.799Z,101581.50
2022-09-04T10:32:25.625Z,101582.75
2022-09-04T10:35:25.400Z,101589.16
2022-09-04T10:38:38.392Z,101599.53
2022-09-04T10:41:49.933Z,101598.34
2022-09-04T10:45:15.876Z,101605.25
2022-09-04T10:48:28.639Z,101605.06
2022-09-04T10:52:05.655Z,101598.19
2022-09-04T10:54:46.381Z,101597.72
2022-09-04T10:58:17.219Z,101602.34
2022-09-04T11:01:42.732Z,101591.22
2022-09-04T11:05:02.630Z,101599.94
2022-09-04T11:08:28.684Z,101601.97
2022-09-04T11:11:52.964Z,101600.03
2022-09-04T11:15:25.244Z,101600.13
2022-09-04T11:18:33.108Z,101603.97
2022-09-04T11:22:20.465Z,101595.28
2022-09-04T11:25:04.335Z,101614.56
2022-09-04T11:33:05.076Z,101595.31
2022-09-04T11:36:08.047Z,101587.34
2022-09-04T11:39:05.053Z,101596.28
2022-09-04T11:42:27.732Z,101584.63
2022-09-04T11:46:06.699Z,101584.47
2022-09-04T11:49:18.866Z,101586.16
2022-09-04T11:52:31.303Z,101572.91
2022-09-04T11:55:09.965Z,101579.50
2022-09-04T11:58:09.981Z,101580.72
2022-09-04T12:01:22.825Z,101573.91
2022-09-04T12:04:23.266Z,101571.84
2022-09-04T12:07:19.533Z,101575.22
2022-09-04T12:10:19.748Z,101567.84
2022-09-04T12:13:47.615Z,101569.81
2022-09-04T12:16:52.785Z,101568.16
2022-09-04T12:19:55.102Z,101563.28
2022-09-04T12:23:19.199Z,101556.50
2022-09-04T12:26:51.217Z,101557.88
2022-09-04T12:29:40.042Z,101551.69
2022-09-04T12:32:45.120Z,101560.19
2022-09-04T12:35:39.447Z,101561.84
2022-09-04T12:38:47.334Z,101571.25
2022-09-04T12:41:49.225Z,101563.16
2022-09-04T12:44:53.561Z,101571.19
2022-09-04T12:47:41.208Z,101559.88
2022-09-04T12:50:33.429Z,101564.75
2022-09-04T12:54:00.053Z,101566.44
2022-09-04T12:57:55.768Z,101574.50
2022-09-04T13:00:40.794Z,101569.66
2022-09-04T13:03:59.922Z,101563.69
2022-09-04T13:07:15.956Z,101564.44
2022-09-04T13:10:33.040Z,101560.00
2022-09-04T13:14:23.518Z,101562.50
2022-09-04T13:17:30.152Z,101571.00
2022-09-04T13:20:26.486Z,101569.44
2022-09-04T13:23:46.806Z,101561.81
2022-09-04T13:26:47.194Z,101566.75
2022-09-04T13:30:03.275Z,101574.16
2022-09-04T13:32:55.481Z,101574.50
2022-09-04T13:36:19.216Z,101556.72
2022-09-04T13:39:27.950Z,101562.41
2022-09-04T13:42:26.162Z,101569.34
2022-09-04T13:45:23.477Z,101578.66
2022-09-04T13:48:32.752Z,101576.66
2022-09-04T13:51:37.590Z,101578.66
2022-09-04T13:54:37.061Z,101575.78
2022-09-04T13:57:28.072Z,101583.06
2022-09-04T14:00:07.733Z,101584.31
2022-09-04T14:02:39.251Z,101577.84
2022-09-04T14:05:33.305Z,101582.66
2022-09-04T14:08:08.929Z,101583.34
2022-09-04T14:11:11.046Z,101586.28
2022-09-04T14:14:41.270Z,101583.88
2022-09-04T14:17:12.058Z,101580.75
2022-09-04T14:20:48.431Z,101578.69
2022-09-04T14:23:48.478Z,101581.53
2022-09-04T14:26:24.601Z,101585.56
2022-09-04T14:29:36.274Z,101578.94
2022-09-04T14:33:07.475Z,101589.91
2022-09-04T14:36:35.531Z,101587.16
2022-09-04T14:39:15.984Z,101593.66
2022-09-04T14:42:32.020Z,101599.56
2022-09-04T14:45:25.777Z,101595.81
2022-09-04T14:48:06.854Z,101590.75
2022-09-04T14:50:55.813Z,101599.56
2022-09-04T14:53:36.014Z,101585.63
2022-09-04T14:56:12.014Z,101591.75
2022-09-04T14:59:34.299Z,101594.44
2022-09-04T15:02:08.697Z,101598.31
2022-09-04T15:05:07.498Z,101592.22
2022-09-04T15:07:43.132Z,101586.31
2022-09-04T15:10:50.982Z,101586.03
2022-09-04T15:13:31.479Z,101581.94
2022-09-04T15:16:09.925Z,101597.44
2022-09-04T15:19:56.489Z,101589.38
2022-09-04T15:23:07.599Z,101591.63
2022-09-04T15:26:03.014Z,101586.63
2022-09-04T15:28:51.649Z,101588.47
2022-09-04T15:31:42.146Z,101584.44
2022-09-04T15:34:24.213Z,101584.31
2022-09-04T15:36:51.712Z,101586.38
2022-09-04T15:39:54.799Z,101587.09
2022-09-04T15:42:56.758Z,101590.75
2022-09-04T15:45:54.120Z,101592.66
2022-09-04T15:49:17.402Z,101600.53
2022-09-04T15:52:44.344Z,101594.94
2022-09-04T15:55:30.720Z,101598.59
2022-09-04T15:58:36.389Z,101589.59
2022-09-04T16:01:06.520Z,101593.19
2022-09-04T16:04:33.358Z,101597.88
2022-09-04T16:07:36.927Z,101604.56
2022-09-04T16:10:24.687Z,101607.75
2022-09-04T16:13:32.922Z,101605.25
2022-09-04T16:16:46.631Z,101603.53
2022-09-04T16:19:59.991Z,101600.97
2022-09-04T16:23:12.216Z,101616.97
2022-09-04T16:25:50.415Z,101613.59
2022-09-04T16:28:34.868Z,101615.94
2022-09-04T16:31:23.050Z,101624.63
2022-09-04T16:34:02.112Z,101614.81
2022-09-04T16:36:40.245Z,101618.84
2022-09-04T16:39:43.692Z,101619.19
2022-09-04T16:42:46.321Z,101619.88
2022-09-04T16:45:55.501Z,101628.13
2022-09-04T16:48:48.652Z,101637.88
2022-09-04T16:51:57.831Z,101634.94
2022-09-04T16:54:49.251Z,101635.94
2022-09-04T16:57:33.298Z,101641.50
2022-09-04T17:00:14.321Z,101639.06
2022-09-04T17:02:53.547Z,101642.09
2022-09-04T17:05:51.397Z,101648.31
2022-09-04T17:09:24.367Z,101649.34
2022-09-04T17:12:20.627Z,101642.19
2022-09-04T17:15:29.425Z,101656.56
2022-09-04T17:17:59.457Z,101655.19
2022-09-04T17:22:34.757Z,101664.72
2022-09-04T17:28:58.917Z,101660.44
2022-09-04T17:29:13.812Z,101658.88
2022-09-04T17:30:07.662Z,101663.06
2022-09-04T17:38:09.063Z,101663.34
2022-09-04T17:40:41.220Z,101665.59
2022-09-04T17:40:52.440Z,101664.41
2022-09-04T17:43:22.361Z,101666.75
2022-09-04T17:46:15.999Z,101668.31
2022-09-04T17:48:46.364Z,101677.91
2022-09-04T17:51:33.803Z,101679.47
2022-09-04T17:54:14.373Z,101688.75
2022-09-04T17:56:59.858Z,101686.00
2022-09-04T18:00:06.870Z,101696.03
2022-09-04T18:02:59.537Z,101700.91
2022-09-04T18:05:53.840Z,101702.97
2022-09-04T18:08:55.625Z,101698.13
2022-09-04T18:12:00.140Z,101706.84
2022-09-04T18:15:32.262Z,101706.53
2022-09-04T18:18:18.323Z,101705.06
2022-09-04T18:21:12.261Z,101715.97
2022-09-04T18:24:11.997Z,101722.50
2022-09-04T18:26:51.203Z,101724.25
2022-09-04T18:32:09.968Z,101723.19
2022-09-04T18:37:06.670Z,101720.50
2022-09-04T18:37:25.320Z,101727.06
2022-09-04T18:39:41.011Z,101731.66
2022-09-04T18:50:22.932Z,101736.66
2022-09-04T18:50:39.876Z,101733.25
2022-09-04T18:50:48.708Z,101739.13
2022-09-04T18:51:30.666Z,101740.03
2022-09-04T18:54:47.397Z,101740.13
2022-09-04T18:57:49.263Z,101752.16
2022-09-04T19:00:41.140Z,101768.72
2022-09-04T19:03:27.873Z,101762.84
2022-09-04T19:06:12.642Z,101760.94
2022-09-04T19:08:51.736Z,101762.31
2022-09-04T19:11:32.015Z,101766.16
2022-09-04T19:14:19.044Z,101761.13
2022-09-04T19:17:19.676Z,101754.28
2022-09-04T19:20:07.914Z,101759.94
2022-09-04T19:22:48.811Z,101760.28
2022-09-04T19:25:34.015Z,101754.34
2022-09-04T19:28:34.439Z,101759.47
2022-09-04T19:31:31.303Z,101761.13
2022-09-04T19:34:17.654Z,101761.81
2022-09-04T19:38:13.676Z,101758.31
2022-09-04T19:45:57.207Z,101761.59
2022-09-04T19:45:59.535Z,101765.91
2022-09-04T19:48:00.826Z,101769.41
2022-09-04T19:53:31.576Z,101757.22
2022-09-04T19:54:08.637Z,101755.94
2022-09-04T19:57:32.626Z,101762.34
2022-09-04T20:00:42.912Z,101765.97
2022-09-04T20:03:56.711Z,101763.88
2022-09-04T20:06:50.828Z,101769.47
2022-09-04T20:09:49.635Z,101763.72
2022-09-04T20:12:48.929Z,101768.69
2022-09-04T20:15:31.743Z,101770.56
2022-09-04T20:18:40.823Z,101764.00
2022-09-04T20:21:18.100Z,101764.75
2022-09-04T20:24:13.826Z,101773.81
2022-09-04T20:27:24.388Z,101774.03
2022-09-04T20:30:13.007Z,101775.38
2022-09-04T20:32:56.550Z,101773.75
2022-09-04T20:36:03.804Z,101776.75
2022-09-04T20:39:12.695Z,101775.78
2022-09-04T20:42:18.591Z,101781.09
2022-09-04T20:46:11.092Z,101789.03
2022-09-04T20:52:51.802Z,101782.13
2022-09-04T20:52:52.785Z,101781.44
2022-09-04T20:55:18.175Z,101782.94
2022-09-04T21:02:34.683Z,101786.78
2022-09-04T21:03:09.148Z,101790.06
2022-09-04T21:04:55.290Z,101790.03
2022-09-04T21:07:54.956Z,101792.16
2022-09-04T21:10:37.895Z,101804.38
2022-09-04T21:14:06.549Z,101807.84
2022-09-04T21:17:29.067Z,101813.63
2022-09-04T21:20:26.163Z,101816.28
2022-09-04T21:23:31.698Z,101814.81
2022-09-04T21:26:16.710Z,101821.25
2022-09-04T21:29:10.788Z,101825.53
2022-09-04T21:31:59.231Z,101832.81
2022-09-04T21:35:15.767Z,101834.97
2022-09-04T21:38:05.268Z,101831.84
2022-09-04T21:41:19.193Z,101826.53
2022-09-04T21:44:11.128Z,101827.06
2022-09-04T21:47:45.066Z,101826.41
2022-09-04T21:50:49.323Z,101828.88
2022-09-04T21:55:26.654Z,101828.38
2022-09-04T22:02:28.188Z,101823.31
2022-09-04T22:02:37.308Z,101831.88
2022-09-04T22:05:39.485Z,101838.13
2022-09-04T22:13:06.277Z,101835.19
2022-09-04T22:13:33.498Z,101838.81
2022-09-04T22:15:06.879Z,101840.63
2022-09-04T22:18:48.493Z,101833.56
2022-09-04T22:22:12.069Z,101840.31
2022-09-04T22:25:12.482Z,101846.88
2022-09-04T22:28:29.009Z,101838.19
2022-09-04T22:31:24.631Z,101844.59
2022-09-04T22:34:42.653Z,101840.50
2022-09-04T22:37:58.684Z,101846.72
2022-09-04T22:41:17.706Z,101844.75
2022-09-04T22:44:14.091Z,101845.91
2022-09-04T22:47:27.160Z,101848.22
2022-09-04T22:50:50.233Z,101854.47
2022-09-04T22:54:05.327Z,101848.22
2022-09-04T22:56:59.370Z,101850.16
2022-09-04T23:00:11.404Z,101856.56
2022-09-04T23:03:47.047Z,101847.88
2022-09-04T23:11:25.272Z,101849.97
2022-09-04T23:14:00.920Z,101845.88
2022-09-04T23:14:08.812Z,101850.16
2022-09-04T23:17:09.178Z,101844.91
2022-09-04T23:26:31.047Z,101842.91
2022-09-04T23:26:49.610Z,101852.47
2022-09-04T23:27:01.486Z,101845.38
2022-09-04T23:30:25.101Z,101851.59
2022-09-04T23:33:37.317Z,101851.78
2022-09-04T23:36:57.182Z,101844.88
2022-09-04T23:40:10.383Z,101849.13
2022-09-04T23:44:00.802Z,101849.78
2022-09-04T23:46:55.948Z,101862.75
2022-09-04T23:49:46.673Z,101859.78
2022-09-04T23:52:48.906Z,101850.56
2022-09-04T23:55:48.931Z,101849.28
2022-09-04T23:59:38.241Z,101851.25
